createdAt,value
2023-04-09T05:09:29.570Z,101071.97
2023-04-09T05:51:17.275Z,101094.91
2023-04-09T05:59:55.285Z,101100.25
2023-04-09T06:00:57.382Z,101101.56
2023-04-09T06:01:59.350Z,101103.59
2023-04-09T06:03:02.522Z,101105.50
2023-04-09T06:04:05.027Z,101105.09
2023-04-09T06:05:07.482Z,101102.22
2023-04-09T06:06:09.373Z,101106.50
2023-04-09T06:07:11.482Z,101105.41
2023-04-09T06:08:14.186Z,101104.13
2023-04-09T06:09:16.711Z,101104.63
2023-04-09T06:10:18.497Z,101101.00
2023-04-09T06:11:24.826Z,101115.88
2023-04-09T06:12:38.253Z,101106.94
2023-04-09T06:14:05.918Z,101108.66
2023-04-09T06:15:11.433Z,101110.53
2023-04-09T06:16:13.828Z,101113.25
2023-04-09T06:17:18.954Z,101113.47
2023-04-09T06:18:24.903Z,101111.00
2023-04-09T06:19:27.075Z,101113.34
2023-04-09T06:20:29.088Z,101111.25
2023-04-09T06:21:31.537Z,101113.31
2023-04-09T06:22:34.084Z,101115.06
2023-04-09T06:23:37.379Z,101109.41
2023-04-09T06:24:39.345Z,101113.34
2023-04-09T06:25:41.484Z,101113.31
2023-04-09T06:26:43.288Z,101120.06
2023-04-09T06:27:46.550Z,101115.38
2023-04-09T06:28:48.358Z,101117.56
2023-04-09T06:29:50.311Z,101114.66
2023-04-09T06:30:54.227Z,101115.59
2023-04-09T06:32:51.002Z,101113.19
2023-04-09T06:34:04.271Z,101114.81
2023-04-09T06:35:21.732Z,101123.06
2023-04-09T06:36:24.663Z,101115.97
2023-04-09T06:37:26.558Z,101119.72
2023-04-09T06:38:28.730Z,101114.50
2023-04-09T06:39:30.899Z,101117.50
2023-04-09T06:40:33.147Z,101117.25
2023-04-09T06:41:37.971Z,101117.34
2023-04-09T06:42:52.368Z,101118.38
2023-04-09T06:44:03.584Z,101111.53
2023-04-09T06:45:08.979Z,101118.59
2023-04-09T06:46:11.341Z,101111.59
2023-04-09T06:47:13.309Z,101114.25
2023-04-09T06:48:17.312Z,101122.25
2023-04-09T06:49:19.164Z,101111.78
2023-04-09T06:50:21.036Z,101117.66
2023-04-09T06:51:22.911Z,101119.34
2023-04-09T06:52:24.865Z,101121.69
2023-04-09T06:53:27.164Z,101107.56
2023-04-09T06:54:29.289Z,101105.22
2023-04-09T06:55:36.165Z,101117.09
2023-04-09T06:56:38.460Z,101121.63
2023-04-09T06:57:40.998Z,101117.81
2023-04-09T06:58:43.576Z,101116.16
2023-04-09T06:59:49.062Z,101110.16
2023-04-09T07:00:52.088Z,101108.69
2023-04-09T07:01:54.792Z,101106.72
2023-04-09T07:02:58.385Z,101110.31
2023-04-09T07:04:03.793Z,101111.91
2023-04-09T07:05:06.106Z,101118.34
2023-04-09T07:06:07.988Z,101113.59
2023-04-09T07:07:09.966Z,101113.25
2023-04-09T07:08:13.110Z,101112.56
2023-04-09T07:09:15.664Z,101115.63
2023-04-09T07:10:19.632Z,101113.50
2023-04-09T07:11:21.616Z,101113.50
2023-04-09T07:12:30.564Z,101113.75
2023-04-09T07:13:33.356Z,101118.53
2023-04-09T07:14:37.103Z,101120.03
2023-04-09T07:15:42.560Z,101125.75
2023-04-09T07:16:46.549Z,101122.47
2023-04-09T07:17:48.754Z,101132.69
2023-04-09T07:18:52.868Z,101130.09
2023-04-09T07:19:54.799Z,101135.31
2023-04-09T07:20:56.656Z,101125.53
2023-04-09T07:21:58.598Z,101124.72
2023-04-09T07:23:01.158Z,101127.31
2023-04-09T07:24:03.002Z,101125.41
2023-04-09T07:26:21.417Z,101120.31
2023-04-09T07:27:30.427Z,101124.06
2023-04-09T07:28:32.570Z,101122.63
2023-04-09T07:29:34.368Z,101130.28
2023-04-09T07:30:36.272Z,101127.41
2023-04-09T07:31:41.938Z,101127.25
2023-04-09T07:32:44.240Z,101123.66
2023-04-09T07:33:48.394Z,101122.69
2023-04-09T07:34:54.639Z,101123.53
2023-04-09T07:35:56.883Z,101119.19
2023-04-09T07:36:58.837Z,101123.75
2023-04-09T07:38:01.173Z,101123.81
2023-04-09T07:39:03.015Z,101123.41
2023-04-09T07:40:06.097Z,101122.16
2023-04-09T07:41:43.068Z,101126.56
2023-04-09T07:42:45.205Z,101118.22
2023-04-09T07:43:47.525Z,101124.22
2023-04-09T07:44:49.862Z,101113.41
2023-04-09T07:45:52.972Z,101122.22
2023-04-09T07:50:30.023Z,101119.81
2023-04-09T07:51:36.524Z,101115.00
2023-04-09T07:52:39.198Z,101120.59
2023-04-09T07:53:48.104Z,101114.19
2023-04-09T07:55:37.896Z,101124.53
2023-04-09T07:56:45.949Z,101121.00
2023-04-09T08:04:51.443Z,101110.06
2023-04-09T08:05:57.851Z,101122.69
2023-04-09T08:06:59.958Z,101115.00
2023-04-09T08:08:01.920Z,101116.00
2023-04-09T08:09:32.685Z,101111.84
2023-04-09T08:10:34.683Z,101111.75
2023-04-09T08:11:40.155Z,101106.06
2023-04-09T08:14:30.710Z,101110.03
2023-04-09T08:15:33.595Z,101115.56
2023-04-09T08:16:39.283Z,101107.25
2023-04-09T08:17:50.066Z,101106.66
2023-04-09T08:19:01.802Z,101096.94
2023-04-09T08:20:06.949Z,101104.59
2023-04-09T08:21:10.458Z,101105.03
2023-04-09T08:22:14.412Z,101099.56
2023-04-09T08:23:16.685Z,101106.38
2023-04-09T08:24:20.981Z,101106.78
2023-04-09T08:25:25.047Z,101108.28
2023-04-09T08:26:27.496Z,101104.50
2023-04-09T08:27:33.985Z,101106.63
2023-04-09T08:28:36.737Z,101106.91
2023-04-09T08:29:40.745Z,101104.56
2023-04-09T08:30:42.939Z,101115.03
2023-04-09T08:31:46.318Z,101107.13
2023-04-09T08:32:49.313Z,101106.38
2023-04-09T08:33:53.757Z,101108.25
2023-04-09T08:34:55.814Z,101093.31
2023-04-09T08:35:58.244Z,101105.47
2023-04-09T08:37:00.615Z,101099.09
2023-04-09T08:38:05.420Z,101100.00
2023-04-09T08:39:36.878Z,101100.38
2023-04-09T08:40:39.956Z,101096.47
2023-04-09T08:41:45.705Z,101096.09
2023-04-09T08:42:59.625Z,101095.66
2023-04-09T08:44:30.526Z,101091.75
2023-04-09T08:45:33.599Z,101098.19
2023-04-09T08:46:38.482Z,101102.16
2023-04-09T08:49:02.834Z,101091.81
2023-04-09T08:50:06.376Z,101090.97
2023-04-09T08:55:37.528Z,101094.97
2023-04-09T08:56:39.665Z,101091.78
2023-04-09T08:57:43.029Z,101079.84
2023-04-09T08:58:47.008Z,101080.66
2023-04-09T08:59:53.612Z,101084.63
2023-04-09T09:00:55.944Z,101089.84
2023-04-09T09:02:08.942Z,101085.03
2023-04-09T09:03:19.878Z,101087.03
2023-04-09T09:04:22.088Z,101081.84
2023-04-09T09:05:40.770Z,101080.63
2023-04-09T09:06:42.961Z,101083.84
2023-04-09T09:07:55.421Z,101083.84
2023-04-09T09:09:19.289Z,101086.25
2023-04-09T09:10:42.314Z,101089.44
2023-04-09T09:11:50.427Z,101084.63
2023-04-09T09:12:52.559Z,101087.00
2023-04-09T09:13:59.325Z,101086.97
2023-04-09T09:15:04.969Z,101079.75
2023-04-09T09:16:17.166Z,101087.81
2023-04-09T09:17:20.133Z,101074.13
2023-04-09T09:18:44.579Z,101081.19
2023-04-09T09:19:46.817Z,101073.97
2023-04-09T09:20:48.922Z,101080.47
2023-04-09T09:22:06.587Z,101070.72
2023-04-09T09:23:09.018Z,101078.03
2023-04-09T09:24:18.138Z,101077.63
2023-04-09T09:25:24.976Z,101082.06
2023-04-09T09:26:30.360Z,101077.84
2023-04-09T09:27:37.692Z,101073.19
2023-04-09T09:28:49.484Z,101067.22
2023-04-09T09:29:53.922Z,101075.56
2023-04-09T09:31:08.633Z,101070.56
2023-04-09T09:32:13.872Z,101070.03
2023-04-09T09:33:19.063Z,101071.22
2023-04-09T09:34:27.303Z,101071.59
2023-04-09T09:35:31.259Z,101069.91
2023-04-09T09:36:35.501Z,101072.72
2023-04-09T09:37:38.365Z,101070.97
2023-04-09T09:38:57.691Z,101063.09
2023-04-09T09:40:01.598Z,101070.72
2023-04-09T09:41:21.301Z,101064.97
2023-04-09T09:42:31.205Z,101070.75
2023-04-09T09:43:42.831Z,101068.34
2023-04-09T09:44:54.369Z,101061.25
2023-04-09T09:46:00.877Z,101060.38
2023-04-09T09:47:04.963Z,101064.84
2023-04-09T09:48:07.796Z,101054.78
2023-04-09T09:49:19.773Z,101061.84
2023-04-09T09:50:25.920Z,101054.72
2023-04-09T09:51:29.853Z,101060.31
2023-04-09T09:52:31.950Z,101055.44
2023-04-09T09:53:36.901Z,101056.66
2023-04-09T09:54:48.175Z,101056.97
2023-04-09T09:55:57.563Z,101063.47
2023-04-09T09:57:06.041Z,101061.94
2023-04-09T09:58:23.988Z,101059.69
2023-04-09T09:59:32.280Z,101044.56
2023-04-09T10:00:37.421Z,101053.34
2023-04-09T10:01:41.418Z,101047.63
2023-04-09T10:02:57.622Z,101048.56
2023-04-09T10:04:03.038Z,101049.00
2023-04-09T10:05:09.057Z,101059.00
2023-04-09T10:06:14.711Z,101045.44
2023-04-09T10:07:17.649Z,101052.59
2023-04-09T10:08:26.838Z,101059.44
2023-04-09T10:09:32.932Z,101053.44
2023-04-09T10:10:36.815Z,101050.25
2023-04-09T10:11:42.817Z,101048.22
2023-04-09T10:12:45.763Z,101045.03
2023-04-09T10:13:54.772Z,101052.59
2023-04-09T10:15:04.443Z,101043.06
2023-04-09T10:16:09.369Z,101043.88
2023-04-09T10:17:12.161Z,101042.25
2023-04-09T10:18:16.253Z,101035.09
2023-04-09T10:19:24.304Z,101035.84
2023-04-09T10:20:42.096Z,101044.25
2023-04-09T10:22:24.197Z,101043.50
2023-04-09T10:23:39.890Z,101036.31
2023-04-09T10:24:42.596Z,101041.50
2023-04-09T10:25:45.132Z,101036.31
2023-04-09T10:26:48.243Z,101043.88
2023-04-09T10:28:02.631Z,101048.63
2023-04-09T10:29:12.293Z,101037.75
2023-04-09T10:30:36.896Z,101045.50
2023-04-09T10:32:33.240Z,101046.19
2023-04-09T10:33:38.244Z,101043.34
2023-04-09T10:34:54.382Z,101035.78
2023-04-09T10:36:05.648Z,101034.19
2023-04-09T10:37:15.003Z,101034.63
2023-04-09T10:38:42.172Z,101038.69
2023-04-09T10:39:57.102Z,101035.91
2023-04-09T10:42:33.125Z,101025.53
2023-04-09T10:43:40.528Z,101029.13
2023-04-09T10:44:42.918Z,101031.91
2023-04-09T10:45:47.315Z,101027.94
2023-04-09T10:46:53.969Z,101035.53
2023-04-09T10:47:56.855Z,101031.13
2023-04-09T10:50:33.546Z,101037.91
2023-04-09T10:51:39.147Z,101043.81
2023-04-09T10:52:44.651Z,101046.28
2023-04-09T10:55:30.723Z,101043.88
2023-04-09T10:56:34.189Z,101028.34
2023-04-09T10:57:36.785Z,101033.09
2023-04-09T10:58:44.878Z,101039.13
2023-04-09T10:59:56.792Z,101038.31
2023-04-09T11:01:07.175Z,101032.72
2023-04-09T11:02:21.505Z,101033.53
2023-04-09T11:03:32.007Z,101030.31
2023-04-09T11:06:22.319Z,101019.56
2023-04-09T11:07:26.314Z,101028.72
2023-04-09T11:08:34.149Z,101025.16
2023-04-09T11:09:42.121Z,101017.94
2023-04-09T11:10:51.174Z,101022.31
2023-04-09T11:11:54.317Z,101016.75
2023-04-09T11:12:56.303Z,101019.13
2023-04-09T11:14:01.971Z,101015.13
2023-04-09T11:15:06.387Z,101016.72
2023-04-09T11:16:09.694Z,101021.47
2023-04-09T11:17:13.247Z,101018.72
2023-04-09T11:18:26.962Z,101030.66
2023-04-09T11:19:30.572Z,101022.25
2023-04-09T11:20:34.674Z,101022.72
2023-04-09T11:21:37.458Z,101015.94
2023-04-09T11:22:39.891Z,101018.75
2023-04-09T11:23:43.308Z,101016.75
2023-04-09T11:24:51.277Z,101015.16
2023-04-09T11:25:54.433Z,101007.97
2023-04-09T11:26:56.896Z,101005.56
2023-04-09T11:28:03.582Z,101007.97
2023-04-09T11:29:10.844Z,101019.50
2023-04-09T11:30:13.370Z,101011.97
2023-04-09T11:31:16.874Z,101014.34
2023-04-09T11:32:19.424Z,101013.53
2023-04-09T11:33:21.791Z,101020.75
2023-04-09T11:34:28.427Z,101020.75
2023-04-09T11:35:30.489Z,101010.38
2023-04-09T11:36:34.995Z,101007.97
2023-04-09T11:37:37.118Z,101012.78
2023-04-09T11:38:39.368Z,101006.34
2023-04-09T11:39:48.915Z,101010.75
2023-04-09T11:40:51.684Z,101005.56
2023-04-09T11:41:54.452Z,101007.94
2023-04-09T11:42:57.024Z,101002.34
2023-04-09T11:44:06.226Z,100996.34
2023-04-09T11:45:08.694Z,100992.38
2023-04-09T11:46:10.877Z,100993.53
2023-04-09T11:47:14.821Z,100994.31
2023-04-09T11:48:18.883Z,100995.91
2023-04-09T11:49:25.959Z,100995.94
2023-04-09T11:50:28.504Z,100987.09
2023-04-09T11:51:33.358Z,100993.91
2023-04-09T11:52:38.630Z,100996.72
2023-04-09T11:53:41.287Z,100995.94
2023-04-09T11:54:48.375Z,100988.75
2023-04-09T11:55:53.029Z,100998.31
2023-04-09T11:56:56.235Z,100995.09
2023-04-09T11:58:01.378Z,100990.34
2023-04-09T11:59:04.770Z,100983.91
2023-04-09T12:00:12.485Z,100986.78
2023-04-09T12:01:15.814Z,100995.19
2023-04-09T12:02:19.376Z,100997.53
2023-04-09T12:03:29.804Z,100984.75
2023-04-09T12:04:34.157Z,100985.56
2023-04-09T12:05:41.064Z,100983.13
2023-04-09T12:06:44.266Z,100986.72
2023-04-09T12:07:56.267Z,100989.91
2023-04-09T12:09:00.143Z,100988.75
2023-04-09T12:10:10.629Z,100979.94
2023-04-09T12:11:17.058Z,100978.31
2023-04-09T12:12:20.587Z,100980.75
2023-04-09T12:13:32.740Z,100983.13
2023-04-09T12:14:35.104Z,100979.16
2023-04-09T12:15:41.562Z,100986.38
2023-04-09T12:16:45.027Z,100987.97
2023-04-09T12:17:49.429Z,100980.72
2023-04-09T12:18:56.066Z,100982.41
2023-04-09T12:19:57.974Z,100981.19
2023-04-09T12:21:03.656Z,100976.81
2023-04-09T12:22:05.709Z,100974.84
2023-04-09T12:23:08.795Z,100975.25
2023-04-09T12:24:11.025Z,100978.41
2023-04-09T12:25:13.083Z,100980.00
2023-04-09T12:26:22.821Z,100978.41
2023-04-09T12:27:24.896Z,100971.19
2023-04-09T12:28:27.719Z,100974.75
2023-04-09T12:29:33.444Z,100969.59
2023-04-09T12:30:36.371Z,100984.75
2023-04-09T12:31:38.492Z,100980.00
2023-04-09T12:32:40.601Z,100974.00
2023-04-09T12:33:43.206Z,100969.59
2023-04-09T12:34:47.521Z,100976.03
2023-04-09T12:35:50.486Z,100979.22
2023-04-09T12:36:52.535Z,100974.41
2023-04-09T12:37:57.269Z,100972.03
2023-04-09T12:39:00.944Z,100972.41
2023-04-09T12:40:05.470Z,100975.19
2023-04-09T12:41:07.534Z,100975.19
2023-04-09T12:42:12.492Z,100971.25
2023-04-09T12:43:17.029Z,100974.03
2023-04-09T12:44:22.584Z,100973.63
2023-04-09T12:45:25.646Z,100971.25
2023-04-09T12:46:28.924Z,100972.03
2023-04-09T12:47:30.947Z,100975.25
2023-04-09T12:48:33.859Z,100970.84
2023-04-09T12:49:36.071Z,100968.84
2023-04-09T12:50:38.499Z,100975.25
2023-04-09T12:51:40.469Z,100971.63
2023-04-09T12:52:43.110Z,100970.84
2023-04-09T12:53:47.771Z,100971.63
2023-04-09T12:54:56.156Z,100965.25
2023-04-09T12:55:58.835Z,100967.63
2023-04-09T12:57:01.117Z,100970.81
2023-04-09T12:58:03.258Z,100958.41
2023-04-09T12:59:10.296Z,100969.66
2023-04-09T13:00:16.327Z,100967.63
2023-04-09T13:01:19.501Z,100965.63
2023-04-09T13:02:26.878Z,100969.22
2023-04-09T13:03:29.746Z,100964.78
2023-04-09T13:04:38.975Z,100963.22
2023-04-09T13:05:40.966Z,100970.75
2023-04-09T13:06:45.406Z,100969.16
2023-04-09T13:07:48.239Z,100970.38
2023-04-09T13:10:32.216Z,100967.97
2023-04-09T13:11:34.357Z,100968.41
2023-04-09T13:13:55.568Z,100971.22
2023-04-09T13:15:08.028Z,100968.47
2023-04-09T13:16:10.505Z,100963.25
2023-04-09T13:18:31.469Z,100961.69
2023-04-09T13:19:43.350Z,100965.66
2023-04-09T13:20:48.641Z,100957.66
2023-04-09T13:21:55.211Z,100961.69
2023-04-09T13:22:59.885Z,100971.25
2023-04-09T13:24:03.930Z,100973.63
2023-04-09T13:25:10.724Z,100964.06
2023-04-09T13:26:14.365Z,100960.88
2023-04-09T13:27:16.699Z,100966.84
2023-04-09T13:28:29.798Z,100966.44
2023-04-09T13:30:08.118Z,100961.66
2023-04-09T13:31:14.934Z,100957.28
2023-04-09T13:32:18.398Z,100959.25
2023-04-09T13:33:21.342Z,100968.00
2023-04-09T13:34:25.417Z,100956.06
2023-04-09T13:35:28.277Z,100956.06
2023-04-09T13:36:31.879Z,100960.06
2023-04-09T13:37:34.411Z,100960.06
2023-04-09T13:38:36.701Z,100960.84
2023-04-09T13:39:38.938Z,100961.25
2023-04-09T13:40:41.312Z,100962.44
2023-04-09T13:41:44.411Z,100954.06
2023-04-09T13:42:46.415Z,100959.66
2023-04-09T13:43:48.417Z,100959.25
2023-04-09T13:44:50.738Z,100960.41
2023-04-09T13:45:54.144Z,100957.22
2023-04-09T13:46:59.340Z,100955.59
2023-04-09T13:48:01.374Z,100960.03
2023-04-09T13:49:06.050Z,100950.03
2023-04-09T13:50:11.303Z,100957.63
2023-04-09T13:51:13.308Z,100956.84
2023-04-09T13:52:16.343Z,100959.19
2023-04-09T13:53:18.570Z,100956.41
2023-04-09T13:54:20.764Z,100956.84
2023-04-09T13:55:22.860Z,100952.03
2023-04-09T13:56:26.513Z,100952.41
2023-04-09T13:57:28.543Z,100954.81
2023-04-09T13:58:30.883Z,100949.66
2023-04-09T13:59:33.121Z,100956.03
2023-04-09T14:00:36.531Z,100953.22
2023-04-09T14:01:38.821Z,100960.75
2023-04-09T14:02:41.306Z,100952.84
2023-04-09T14:03:45.380Z,100957.59
2023-04-09T14:04:47.811Z,100953.63
2023-04-09T14:05:49.858Z,100954.03
2023-04-09T14:06:51.940Z,100950.03
2023-04-09T14:07:54.440Z,100948.47
2023-04-09T14:08:57.272Z,100945.28
2023-04-09T14:10:02.023Z,100949.25
2023-04-09T14:11:04.309Z,100948.84
2023-04-09T14:12:06.589Z,100949.63
2023-04-09T14:13:14.196Z,100936.47
2023-04-09T14:14:16.819Z,100945.19
2023-04-09T14:15:19.531Z,100945.63
2023-04-09T14:16:30.213Z,100943.13
2023-04-09T14:17:34.379Z,100942.34
2023-04-09T14:18:48.867Z,100951.16
2023-04-09T14:21:11.086Z,100936.78
2023-04-09T14:22:18.198Z,100944.00
2023-04-09T14:23:20.403Z,100946.78
2023-04-09T14:24:30.376Z,100941.56
2023-04-09T14:25:40.100Z,100938.38
2023-04-09T14:27:59.187Z,100937.56
2023-04-09T14:29:01.567Z,100940.78
2023-04-09T14:43:12.716Z,100927.94
2023-04-09T14:44:19.593Z,100929.84
2023-04-09T14:45:22.434Z,100939.91
2023-04-09T14:55:50.176Z,100941.31
2023-04-09T14:56:59.371Z,100948.47
2023-04-09T14:58:08.852Z,100935.69
2023-04-09T14:59:12.585Z,100942.09
2023-04-09T15:00:15.723Z,100942.94
2023-04-09T15:01:22.575Z,100943.75
2023-04-09T15:02:27.144Z,100941.69
2023-04-09T15:03:30.123Z,100938.09
2023-04-09T15:04:47.375Z,100940.03
2023-04-09T15:05:49.337Z,100932.13
2023-04-09T15:06:51.570Z,100942.47
2023-04-09T15:09:12.359Z,100932.94
2023-04-09T15:12:48.490Z,100931.41
2023-04-09T15:15:09.945Z,100935.78
2023-04-09T15:17:41.788Z,100926.97
2023-04-09T15:18:52.940Z,100934.19
2023-04-09T15:22:14.542Z,100934.47
2023-04-09T15:23:16.737Z,100931.34
2023-04-09T15:24:19.157Z,100932.53
2023-04-09T15:25:21.433Z,100926.97
2023-04-09T15:26:24.441Z,100930.16
2023-04-09T15:27:31.347Z,100930.53
2023-04-09T15:28:33.787Z,100929.38
2023-04-09T15:29:44.389Z,100934.91
2023-04-09T15:30:47.007Z,100925.78
2023-04-09T15:35:36.548Z,100930.97
2023-04-09T15:48:05.659Z,100933.63
2023-04-09T15:49:17.026Z,100933.59
2023-04-09T15:50:19.658Z,100930.00
2023-04-09T15:51:21.832Z,100924.47
2023-04-09T15:52:25.948Z,100925.22
2023-04-09T15:53:33.469Z,100920.06
2023-04-09T17:34:09.583Z,100941.81
2023-04-09T17:35:52.768Z,100946.56
2023-04-09T17:37:05.508Z,100938.63
2023-04-09T17:38:10.845Z,100944.97
2023-04-09T17:39:16.365Z,100937.81
2023-04-09T17:43:08.380Z,100941.06
2023-04-09T17:44:15.665Z,100939.53
2023-04-09T17:51:36.387Z,100936.31
2023-04-09T18:22:10.672Z,100944.41
2023-04-09T18:32:59.959Z,100943.94
2023-04-09T18:34:06.179Z,100942.34
2023-04-09T18:35:26.030Z,100947.91
2023-04-09T18:46:42.490Z,100941.41
2023-04-09T18:55:51.370Z,100956.13
2023-04-09T18:57:21.847Z,100960.78
2023-04-09T18:58:31.934Z,100953.94
2023-04-09T18:59:37.372Z,100955.19
2023-04-09T19:01:04.993Z,100956.34
2023-04-09T19:03:58.822Z,100957.81
2023-04-09T19:05:08.026Z,100958.56
2023-04-09T19:11:22.495Z,100948.81
2023-04-09T19:12:31.979Z,100959.06
2023-04-09T19:13:47.705Z,100951.41
2023-04-09T19:15:08.904Z,100950.34
2023-04-09T19:19:13.889Z,100956.38
2023-04-09T19:24:19.564Z,100951.34
2023-04-09T19:29:25.058Z,100953.56
2023-04-09T19:31:25.019Z,100954.34
2023-04-09T19:39:06.711Z,100949.31
2023-04-09T19:44:15.176Z,100955.50
2023-04-09T19:49:02.866Z,100952.63
2023-04-09T19:53:48.185Z,100960.78
2023-04-09T19:55:21.367Z,100960.00
2023-04-09T19:56:56.941Z,100957.22
2023-04-09T20:01:34.911Z,100956.06
2023-04-09T20:07:36.073Z,100955.84
2023-04-09T20:10:03.101Z,100952.53
2023-04-09T20:14:07.136Z,100957.56
2023-04-09T20:15:42.370Z,100955.22
2023-04-09T20:16:56.280Z,100957.97
2023-04-09T20:18:07.456Z,100959.09
2023-04-09T20:19:21.010Z,100957.56
2023-04-09T20:21:49.083Z,100955.41
2023-04-09T20:23:03.464Z,100957.75
2023-04-09T20:24:27.084Z,100954.53
2023-04-09T20:25:47.715Z,100956.25
2023-04-09T20:26:54.694Z,100952.66
2023-04-09T20:28:27.514Z,100956.56
2023-04-09T20:30:02.383Z,100962.47
2023-04-09T20:33:53.975Z,100954.47
2023-04-09T20:43:06.398Z,100962.78
2023-04-09T20:55:20.746Z,100970.53
2023-04-09T20:56:42.840Z,100958.69
2023-04-09T20:58:20.926Z,100969.66
2023-04-09T20:59:50.681Z,100959.66
2023-04-09T21:02:13.569Z,100963.66
2023-04-09T21:03:48.083Z,100961.63
2023-04-09T21:05:08.534Z,100962.44
2023-04-09T21:13:54.998Z,100967.25
2023-04-09T21:15:08.870Z,100967.59
2023-04-09T21:21:43.084Z,100969.28
2023-04-09T21:22:48.143Z,100968.94
2023-04-09T21:24:01.859Z,100967.44
2023-04-09T21:27:46.090Z,100960.41
2023-04-09T21:28:50.991Z,100966.72
2023-04-09T21:29:54.897Z,100973.41
2023-04-09T21:31:04.503Z,100966.63
2023-04-09T21:32:08.458Z,100961.91
2023-04-09T21:33:13.681Z,100964.31
2023-04-09T21:34:17.618Z,100959.47
2023-04-09T21:35:21.935Z,100967.34
2023-04-09T21:40:26.011Z,100964.38
2023-04-09T21:42:00.241Z,100967.25
2023-04-09T21:43:09.030Z,100967.13
2023-04-09T21:44:13.787Z,100967.03
2023-04-09T21:45:22.507Z,100963.81
2023-04-09T21:46:53.697Z,100970.97
2023-04-09T21:47:58.083Z,100965.97
2023-04-09T21:49:01.921Z,100955.16
2023-04-09T21:50:21.432Z,100965.34
2023-04-09T21:51:56.293Z,100963.81
2023-04-09T21:53:03.953Z,100967.63
2023-04-09T21:54:14.486Z,100962.84
2023-04-09T21:55:18.333Z,100973.63
2023-04-09T21:56:24.141Z,100970.41
2023-04-09T21:57:34.349Z,100964.19
2023-04-09T21:58:42.955Z,100968.56
2023-04-09T21:59:53.969Z,100965.34
2023-04-09T22:01:49.920Z,100960.53
2023-04-09T22:03:17.686Z,100958.28
2023-04-09T22:04:49.358Z,100963.28
2023-04-09T22:07:08.768Z,100963.44
2023-04-09T22:10:47.729Z,100962.13
2023-04-09T22:16:48.301Z,100973.06
2023-04-09T22:21:41.824Z,100967.91
2023-04-09T22:22:57.637Z,100963.53
